Terminal Aerodrome Forecast
Issued by NWS

Home | Current Version | Previous Version | Text Only | Print | Product List | Glossary On
Versions: 1 2 3 4 5 6 7 8 9 10 11 12 13 14
000
FTUS42 KMLB 281725
TAFFPR
TAF
KFPR 281725Z 2818/2918 07008KT P6SM VCTS SCT035CB BKN070 OVC100
      TEMPO 2818/2820 3SM TSRA BKN035CB BKN050
     FM282100 12008KT P6SM VCSH SCT040 SCT120 BKN250
     FM290000 12005KT P6SM FEW070 BKN250
     FM291400 12007KT P6SM FEW025 SCT035 SCT250=

USA.gov is the U.S. government's official web portal to all federal, state and local government web resources and services.